This is the latest recevied weather packets stored in our database for station/object W5LND-10. If no packets are shown the sender has not sent any weather packets the latest 1 day(s).
| Time | Temp. | Humidity | Pressure | Rain* | Wind** | Luminosity | Snow |
|---|---|---|---|---|---|---|---|
| 1836274797 | 27.78° C | 43% | 1011 hPa | 0 mm | 1.79 m/s, 207° | 0 W/m² | - |
| 1836274497 | 27.78° C | 43% | 1011 hPa | 0 mm | 1.79 m/s, 205° | 0 W/m² | - |
| 1836274346 | 27.78° C | 42% | 1011 hPa | 0 mm | 1.79 m/s, 196° | 0 W/m² | - |
| 1836274197 | 27.78° C | 43% | 1011 hPa | 0 mm | 1.34 m/s, 224° | 0 W/m² | - |
| 1836273897 | 27.78° C | 43% | 1010.8 hPa | 0 mm | 1.34 m/s, 212° | 0 W/m² | - |
| 1778060468 | 12.78° C | 71% | 1006.1 hPa | 0 mm | 3.13 m/s, 129° | 0 W/m² | - |
| 1778060168 | 12.78° C | 70% | 1006.2 hPa | 0 mm | 3.58 m/s, 131° | 0 W/m² | - |
| 1778059880 | 12.78° C | 70% | 1006.3 hPa | 0 mm | 3.13 m/s, 130° | 0 W/m² | - |
| 1778059568 | 12.78° C | 70% | 1006.2 hPa | 0 mm | 2.68 m/s, 122° | 0 W/m² | - |
| 1778059268 | 12.78° C | 70% | 1006.1 hPa | 0 mm | 3.13 m/s, 144° | 0 W/m² | - |
| 1778058968 | 12.78° C | 70% | 1006.1 hPa | 0 mm | 4.02 m/s, 117° | 0 W/m² | - |
| 1778058668 | 13.33° C | 69% | 1005.9 hPa | 0 mm | 4.02 m/s, 118° | 0 W/m² | - |
| 1778058368 | 13.33° C | 69% | 1006.3 hPa | 0 mm | 4.02 m/s, 139° | 0 W/m² | - |
| 1778058068 | 13.33° C | 69% | 1006.2 hPa | 0 mm | 4.02 m/s, 121° | 0 W/m² | - |
| 1778057768 | 13.33° C | 68% | 1005.9 hPa | 0 mm | 3.13 m/s, 119° | 0 W/m² | - |
| 1778057468 | 13.33° C | 68% | 1005.9 hPa | 0 mm | 3.58 m/s, 121° | 0 W/m² | - |
| 1778057168 | 13.89° C | 68% | 1005.8 hPa | 0 mm | 4.02 m/s, 112° | 0 W/m² | - |
| 1778056868 | 13.89° C | 68% | 1005.8 hPa | 0 mm | 4.02 m/s, 125° | 0 W/m² | - |
| 1778056568 | 13.89° C | 67% | 1005.9 hPa | 0 mm | 4.47 m/s, 126° | 0 W/m² | - |
| 1778056268 | 13.89° C | 67% | 1005.8 hPa | 0 mm | 4.47 m/s, 136° | 0 W/m² | - |
| 1778055968 | 14.44° C | 67% | 1006 hPa | 0 mm | 4.47 m/s, 140° | 0 W/m² | - |
| 1778055668 | 14.44° C | 66% | 1005.9 hPa | 0 mm | 4.47 m/s, 128° | 0 W/m² | - |
| 1778055368 | 14.44° C | 66% | 1005.9 hPa | 0 mm | 4.47 m/s, 127° | 0 W/m² | - |
| 1778055068 | 15° C | 66% | 1005.7 hPa | 0 mm | 4.02 m/s, 139° | 0 W/m² | - |
| 1778054768 | 15° C | 66% | 1005.6 hPa | 0 mm | 3.58 m/s, 136° | 0 W/m² | - |
* Rain latest hour (hover to see other rain measurements)
** Current wind speed in m/s (hover to see current wind gust speed)